createdAt,value
2018-02-25T00:02:12.300Z,54.20
2018-02-25T00:04:40.566Z,56.20
2018-02-25T00:07:09.633Z,57.10
2018-02-25T00:09:37.907Z,56.50
2018-02-25T00:12:06.166Z,56.70
2018-02-25T00:14:34.454Z,59.80
2018-02-25T00:17:02.713Z,62.70
2018-02-25T00:19:30.998Z,64.30
2018-02-25T00:21:59.253Z,64.70
2018-02-25T00:24:27.533Z,66.80
2018-02-25T00:26:55.798Z,71.30
2018-02-25T00:29:24.094Z,69.70
2018-02-25T00:31:52.360Z,82.50
2018-02-25T00:34:21.410Z,91.80
2018-02-25T00:36:49.668Z,91.60
2018-02-25T00:39:17.958Z,91.70
2018-02-25T00:41:46.220Z,92.70
2018-02-25T00:44:15.268Z,91.60
2018-02-25T00:46:43.523Z,91.50
2018-02-25T00:49:12.573Z,93.30
2018-02-25T00:51:40.873Z,93.30
2018-02-25T00:54:09.154Z,92.10
2018-02-25T00:56:37.417Z,92.70
2018-02-25T00:59:05.690Z,93.50
2018-02-25T01:01:33.947Z,95.40
2018-02-25T01:04:02.221Z,95.80
2018-02-25T01:06:31.209Z,96.60
2018-02-25T01:08:59.494Z,98.30
2018-02-25T01:11:27.760Z,97.60
2018-02-25T01:13:56.046Z,97.90
2018-02-25T01:16:24.318Z,95.40
2018-02-25T01:18:53.374Z,98.10
2018-02-25T01:21:21.632Z,98.10
2018-02-25T01:23:49.913Z,98.10
2018-02-25T01:26:18.184Z,96.60
2018-02-25T01:28:46.453Z,97.20
2018-02-25T01:31:14.740Z,97.80
2018-02-25T01:33:43.012Z,99.80
2018-02-25T01:36:11.384Z,99.90
2018-02-25T01:38:39.659Z,99.90
2018-02-25T01:41:07.928Z,99.90
2018-02-25T01:43:36.196Z,99.90
2018-02-25T01:46:05.245Z,99.90
2018-02-25T01:48:33.533Z,99.90
2018-02-25T01:51:05.389Z,99.90
2018-02-25T01:53:33.665Z,99.90
2018-02-25T01:56:02.712Z,99.90
2018-02-25T01:58:30.998Z,99.90
2018-02-25T02:00:59.280Z,99.90
2018-02-25T02:03:27.558Z,99.90
2018-02-25T02:05:55.838Z,99.90
2018-02-25T02:08:24.093Z,99.90
2018-02-25T02:10:53.134Z,99.90
2018-02-25T02:13:21.396Z,99.90
2018-02-25T02:15:50.440Z,99.90
2018-02-25T02:18:18.693Z,99.90
2018-02-25T02:20:47.743Z,99.90
2018-02-25T02:23:16.015Z,99.90
2018-02-25T02:25:44.292Z,99.90
2018-02-25T02:28:12.557Z,99.90
2018-02-25T02:30:41.050Z,99.90
2018-02-25T02:33:10.098Z,99.90
2018-02-25T02:35:38.369Z,99.90
2018-02-25T02:38:06.649Z,99.90
2018-02-25T02:40:34.905Z,99.90
2018-02-25T02:43:03.194Z,99.90
2018-02-25T02:45:31.480Z,99.90
2018-02-25T02:47:59.802Z,99.90
2018-02-25T02:50:28.106Z,99.90
2018-02-25T02:52:56.400Z,99.90
2018-02-25T02:55:24.661Z,99.90
2018-02-25T02:57:53.713Z,99.90
2018-02-25T03:00:21.977Z,99.90
2018-02-25T03:02:50.249Z,99.90
2018-02-25T03:05:19.272Z,99.90
2018-02-25T03:07:47.565Z,99.90
2018-02-25T03:10:15.830Z,99.90
2018-02-25T03:12:44.107Z,99.90
2018-02-25T03:15:13.150Z,99.90
2018-02-25T03:17:41.422Z,99.90
2018-02-25T03:20:09.685Z,99.90
2018-02-25T03:22:38.721Z,99.90
2018-02-25T03:25:06.982Z,99.90
2018-02-25T03:27:36.033Z,99.90
2018-02-25T03:30:04.307Z,99.90
2018-02-25T03:32:32.585Z,99.90
2018-02-25T03:35:00.857Z,99.90
2018-02-25T03:37:29.904Z,99.90
2018-02-25T03:39:58.172Z,99.90
2018-02-25T03:42:26.457Z,99.90
2018-02-25T03:44:54.735Z,99.90
2018-02-25T03:47:23.774Z,99.90
2018-02-25T03:49:52.033Z,99.90
2018-02-25T03:52:20.320Z,99.90
2018-02-25T03:54:48.614Z,99.90
2018-02-25T03:57:16.876Z,99.90
2018-02-25T03:59:45.928Z,99.90
2018-02-25T04:02:14.194Z,99.90
2018-02-25T04:04:42.468Z,99.90
2018-02-25T04:07:11.505Z,99.90
2018-02-25T04:09:39.784Z,99.90
2018-02-25T04:12:08.058Z,99.90
2018-02-25T04:14:36.340Z,99.90
2018-02-25T04:17:05.376Z,99.90
2018-02-25T04:19:33.674Z,99.90
2018-02-25T04:22:01.977Z,99.90
2018-02-25T04:24:30.256Z,99.90
2018-02-25T04:26:58.559Z,99.90
2018-02-25T04:29:26.830Z,99.90
2018-02-25T04:31:55.100Z,99.90
2018-02-25T04:34:23.395Z,99.90
2018-02-25T04:36:51.684Z,99.90
2018-02-25T04:39:20.000Z,99.90
2018-02-25T04:41:48.290Z,99.90
2018-02-25T04:44:16.577Z,99.90
2018-02-25T04:46:44.856Z,99.90
2018-02-25T04:49:13.163Z,99.90
2018-02-25T04:51:41.690Z,99.90
2018-02-25T04:54:10.764Z,99.90
2018-02-25T04:56:39.028Z,99.90
2018-02-25T04:59:07.329Z,99.90
2018-02-25T05:01:35.609Z,99.90
2018-02-25T05:04:03.902Z,99.90
2018-02-25T05:06:32.180Z,99.90
2018-02-25T05:09:00.470Z,99.90
2018-02-25T05:11:28.739Z,99.90
2018-02-25T05:13:57.034Z,99.90
2018-02-25T05:16:25.312Z,99.90
2018-02-25T05:18:53.609Z,99.90
2018-02-25T05:21:22.796Z,99.90
2018-02-25T05:23:52.000Z,99.90
2018-02-25T05:26:21.053Z,99.90
2018-02-25T05:28:49.350Z,99.90
2018-02-25T05:31:17.624Z,99.90
2018-02-25T05:33:45.917Z,99.90
2018-02-25T05:36:14.215Z,99.90
2018-02-25T05:38:42.510Z,99.90
2018-02-25T05:41:10.794Z,99.90
2018-02-25T05:43:39.084Z,99.90
2018-02-25T05:46:07.364Z,99.90
2018-02-25T05:48:35.648Z,99.90
2018-02-25T05:51:03.941Z,99.90
2018-02-25T05:53:32.232Z,99.90
2018-02-25T05:56:00.525Z,99.90
2018-02-25T05:58:28.800Z,99.90
2018-02-25T06:00:57.077Z,99.90
2018-02-25T06:03:26.180Z,99.90
2018-02-25T06:05:54.469Z,99.90
2018-02-25T06:08:22.753Z,99.90
2018-02-25T06:10:51.032Z,99.90
2018-02-25T06:13:19.312Z,99.90
2018-02-25T06:15:47.588Z,99.90
2018-02-25T06:18:16.642Z,99.90
2018-02-25T06:20:44.926Z,99.90
2018-02-25T06:23:13.222Z,99.90
2018-02-25T06:25:41.498Z,99.90
2018-02-25T06:28:09.780Z,99.90
2018-02-25T06:30:38.055Z,99.90
2018-02-25T06:33:06.350Z,99.90
2018-02-25T06:35:34.637Z,99.90
2018-02-25T06:38:02.912Z,99.90
2018-02-25T06:40:31.218Z,99.90
2018-02-25T06:42:59.501Z,99.90
2018-02-25T06:45:27.788Z,99.90
2018-02-25T06:47:56.071Z,99.90
2018-02-25T06:50:24.370Z,99.90
2018-02-25T06:52:52.648Z,99.90
2018-02-25T06:55:20.953Z,99.90
2018-02-25T06:57:49.219Z,99.90
2018-02-25T07:00:17.504Z,99.90
2018-02-25T07:02:46.540Z,99.90
2018-02-25T07:05:15.051Z,99.90
2018-02-25T07:07:43.317Z,99.90
2018-02-25T07:10:11.608Z,99.90
2018-02-25T07:12:39.889Z,99.90
2018-02-25T07:15:08.186Z,99.90
2018-02-25T07:17:37.385Z,99.90
2018-02-25T07:20:05.672Z,99.90
2018-02-25T07:22:33.945Z,99.90
2018-02-25T07:25:02.229Z,99.90
2018-02-25T07:27:31.278Z,99.90
2018-02-25T07:29:59.548Z,99.90
2018-02-25T07:32:27.827Z,99.90
2018-02-25T07:34:56.116Z,99.90
2018-02-25T07:37:24.381Z,99.90
2018-02-25T07:39:53.434Z,99.90
2018-02-25T07:42:21.790Z,99.90
2018-02-25T07:44:49.989Z,99.90
2018-02-25T07:47:18.254Z,99.90
2018-02-25T07:49:54.945Z,99.90
2018-02-25T07:52:23.966Z,99.90
2018-02-25T07:54:52.231Z,99.90
2018-02-25T07:57:21.294Z,99.90
2018-02-25T07:59:49.570Z,99.90
2018-02-25T08:02:17.837Z,99.90
2018-02-25T08:04:46.112Z,99.90
2018-02-25T08:07:15.150Z,99.90
2018-02-25T08:09:53.130Z,99.90
2018-02-25T08:12:22.170Z,98.60
2018-02-25T08:14:50.494Z,98.40
2018-02-25T08:17:18.760Z,95.30
2018-02-25T08:19:47.038Z,96.50
2018-02-25T08:22:15.307Z,95.20
2018-02-25T08:24:43.580Z,92.30
2018-02-25T08:27:12.622Z,90.00
2018-02-25T08:29:40.910Z,90.00
2018-02-25T08:32:09.181Z,90.90
2018-02-25T08:34:37.453Z,84.40
2018-02-25T08:37:06.488Z,76.80
2018-02-25T08:39:34.765Z,77.30
2018-02-25T08:42:03.024Z,69.60
2018-02-25T08:44:32.056Z,64.80
2018-02-25T08:47:00.326Z,64.70
2018-02-25T08:49:29.369Z,69.20
2018-02-25T08:51:57.629Z,69.10
2018-02-25T08:54:25.898Z,62.80
2018-02-25T08:56:54.925Z,56.30
2018-02-25T08:59:23.205Z,56.40
2018-02-25T09:01:52.241Z,46.40
2018-02-25T09:04:20.766Z,46.40
2018-02-25T09:06:49.045Z,45.00
2018-02-25T09:09:17.326Z,47.20
2018-02-25T09:11:45.597Z,39.10
2018-02-25T09:14:13.876Z,36.00
2018-02-25T09:16:42.152Z,42.30
2018-02-25T09:19:10.431Z,26.80
2018-02-25T09:21:39.469Z,26.80
2018-02-25T09:24:07.752Z,26.60
2018-02-25T09:26:36.693Z,26.60
2018-02-25T09:29:04.970Z,23.10
2018-02-25T09:31:33.587Z,23.20
2018-02-25T09:34:01.848Z,20.60
2018-02-25T09:36:30.126Z,19.50
2018-02-25T09:38:58.401Z,18.70
2018-02-25T09:41:26.730Z,19.10
2018-02-25T09:43:55.012Z,18.90
2018-02-25T09:46:23.281Z,14.90
2018-02-25T09:48:51.544Z,13.50
2018-02-25T09:51:19.825Z,11.10
2018-02-25T09:53:48.864Z,14.80
2018-02-25T09:56:17.139Z,14.60
2018-02-25T09:58:45.404Z,16.30
2018-02-25T10:01:14.455Z,14.00
2018-02-25T10:03:42.739Z,15.00
2018-02-25T10:06:11.004Z,13.60
2018-02-25T10:08:39.277Z,15.10
2018-02-25T10:11:07.674Z,16.70
2018-02-25T10:13:35.948Z,13.00
2018-02-25T10:16:04.993Z,12.20
2018-02-25T10:18:33.279Z,12.00
2018-02-25T10:21:01.557Z,9.20
2018-02-25T10:23:29.819Z,11.20
2018-02-25T10:25:58.858Z,13.70
2018-02-25T10:28:27.888Z,13.40
2018-02-25T10:30:56.168Z,13.20
2018-02-25T10:33:24.434Z,8.70
2018-02-25T10:35:52.714Z,12.80
2018-02-25T10:38:20.969Z,12.50
2018-02-25T10:40:49.236Z,9.60
2018-02-25T10:43:17.508Z,11.30
2018-02-25T10:45:45.782Z,11.00
2018-02-25T10:48:14.045Z,9.10
2018-02-25T10:50:43.753Z,10.10
2018-02-25T10:53:12.784Z,10.10
2018-02-25T10:55:41.060Z,10.20
2018-02-25T10:58:28.945Z,9.60
2018-02-25T11:01:03.360Z,7.80
2018-02-25T11:03:31.637Z,8.00
2018-02-25T11:06:00.165Z,12.30
2018-02-25T11:08:28.435Z,12.60
2018-02-25T11:10:56.704Z,9.60
2018-02-25T11:13:25.797Z,8.60
2018-02-25T11:16:07.863Z,8.00
2018-02-25T11:18:37.530Z,9.10
2018-02-25T11:21:06.573Z,10.10
2018-02-25T11:23:34.841Z,10.20
2018-02-25T11:26:05.238Z,8.50
2018-02-25T11:28:34.035Z,13.60
2018-02-25T11:31:02.303Z,13.70
2018-02-25T11:33:30.572Z,9.50
2018-02-25T11:35:59.618Z,7.40
2018-02-25T11:38:27.896Z,7.60
2018-02-25T11:40:56.169Z,6.50
2018-02-25T11:43:24.435Z,3.00
2018-02-25T11:45:53.530Z,4.50
2018-02-25T11:48:21.796Z,4.50
2018-02-25T11:50:50.068Z,5.50
2018-02-25T11:53:18.348Z,4.00
2018-02-25T11:55:47.375Z,3.30
2018-02-25T11:58:15.648Z,2.70
2018-02-25T12:00:43.913Z,4.20
2018-02-25T12:03:12.170Z,5.10
2018-02-25T12:05:40.450Z,4.60
2018-02-25T12:08:08.721Z,6.20
2018-02-25T12:10:36.989Z,6.00
2018-02-25T12:13:05.264Z,2.90
2018-02-25T12:15:33.546Z,5.50
2018-02-25T12:18:01.800Z,3.90
2018-02-25T12:20:30.846Z,4.70
2018-02-25T12:22:59.114Z,4.80
2018-02-25T12:25:27.377Z,4.70
2018-02-25T12:27:55.667Z,2.10
2018-02-25T12:30:23.925Z,3.20
2018-02-25T12:32:52.201Z,3.10
2018-02-25T12:35:20.465Z,1.60
2018-02-25T12:37:48.728Z,1.20
2018-02-25T12:40:17.757Z,2.50
2018-02-25T12:42:46.033Z,2.40
2018-02-25T12:45:15.048Z,1.90
2018-02-25T12:47:43.312Z,2.10
2018-02-25T12:50:12.328Z,1.00
2018-02-25T12:52:40.603Z,1.00
2018-02-25T12:55:08.852Z,3.30
2018-02-25T12:57:37.119Z,1.00
2018-02-25T13:00:06.156Z,1.00
2018-02-25T13:02:34.430Z,1.00
2018-02-25T13:05:02.837Z,1.00
2018-02-25T13:07:31.103Z,2.90
2018-02-25T13:09:59.372Z,2.10
2018-02-25T13:12:27.637Z,3.60
2018-02-25T13:14:56.662Z,2.90
2018-02-25T13:17:24.923Z,2.70
2018-02-25T13:19:53.951Z,1.40
2018-02-25T13:22:22.234Z,1.60
2018-02-25T13:24:51.270Z,3.50
2018-02-25T13:27:19.543Z,3.30
2018-02-25T13:29:48.336Z,7.00
2018-02-25T13:32:16.605Z,3.70
2018-02-25T13:34:45.640Z,4.40
2018-02-25T13:37:13.900Z,4.40
2018-02-25T13:39:43.324Z,6.00
2018-02-25T13:42:12.374Z,5.80
2018-02-25T13:44:40.625Z,5.70
2018-02-25T13:47:08.897Z,4.80
2018-02-25T13:49:37.937Z,4.70
2018-02-25T13:52:06.223Z,4.50
2018-02-25T13:54:34.485Z,4.40
2018-02-25T13:57:03.525Z,4.90
2018-02-25T13:59:31.781Z,4.80
2018-02-25T14:02:00.831Z,6.70
2018-02-25T14:04:29.101Z,7.10
2018-02-25T14:06:57.379Z,5.00
2018-02-25T14:09:25.757Z,6.50
2018-02-25T14:11:54.028Z,7.70
2018-02-25T14:14:23.074Z,8.30
2018-02-25T14:16:51.362Z,8.20
2018-02-25T14:19:19.646Z,10.20
2018-02-25T14:21:47.918Z,9.80
2018-02-25T14:24:16.953Z,10.10
2018-02-25T14:26:45.221Z,10.00
2018-02-25T14:29:13.506Z,10.60
2018-02-25T14:31:41.773Z,12.60
2018-02-25T14:34:10.830Z,17.10
2018-02-25T14:36:39.093Z,17.00
2018-02-25T14:39:07.370Z,17.20
2018-02-25T14:41:35.635Z,20.30
2018-02-25T14:44:03.917Z,20.10
2018-02-25T14:46:32.195Z,20.10
2018-02-25T14:49:00.466Z,22.50
2018-02-25T14:51:28.732Z,22.90
2018-02-25T14:53:57.013Z,23.40
2018-02-25T14:56:25.273Z,24.70
2018-02-25T14:58:54.329Z,25.50
2018-02-25T15:01:22.596Z,25.60
2018-02-25T15:03:50.874Z,28.50
2018-02-25T15:06:19.144Z,28.10
2018-02-25T15:08:54.139Z,28.90
2018-02-25T15:11:22.638Z,32.20
2018-02-25T15:13:50.920Z,29.70
2018-02-25T15:16:19.193Z,33.30
2018-02-25T15:18:47.477Z,37.00
2018-02-25T15:21:16.509Z,29.40
2018-02-25T15:23:44.824Z,29.90
2018-02-25T15:26:13.094Z,33.40
2018-02-25T15:28:41.376Z,32.70
2018-02-25T15:31:09.652Z,38.40
2018-02-25T15:33:37.936Z,35.20
2018-02-25T15:36:06.218Z,37.30
2018-02-25T15:38:34.485Z,45.00
2018-02-25T15:41:03.539Z,45.30
2018-02-25T15:43:31.828Z,45.20
2018-02-25T15:46:00.156Z,46.20
2018-02-25T15:48:28.402Z,49.70
2018-02-25T15:50:56.684Z,47.90
2018-02-25T15:53:24.946Z,56.20
2018-02-25T15:55:54.006Z,63.90
2018-02-25T15:58:22.308Z,63.90
2018-02-25T16:00:50.596Z,71.60
2018-02-25T16:03:18.882Z,73.50
2018-02-25T16:05:47.143Z,83.80
2018-02-25T16:08:15.430Z,91.00
2018-02-25T16:10:43.713Z,90.70
2018-02-25T16:13:11.985Z,92.90
2018-02-25T16:15:40.265Z,97.70
2018-02-25T16:18:09.304Z,99.90
2018-02-25T16:20:37.564Z,99.90
2018-02-25T16:23:05.856Z,99.90
2018-02-25T16:25:34.117Z,99.90
2018-02-25T16:28:03.166Z,99.90
2018-02-25T16:30:32.369Z,99.90
2018-02-25T16:33:00.648Z,99.90
2018-02-25T16:35:28.940Z,99.90
2018-02-25T16:37:57.249Z,99.90
2018-02-25T16:40:26.409Z,99.90
2018-02-25T16:42:54.684Z,99.90
2018-02-25T16:45:22.953Z,99.90
2018-02-25T16:47:51.226Z,99.90
2018-02-25T16:50:19.493Z,99.90
2018-02-25T16:52:47.759Z,99.90
2018-02-25T16:55:16.792Z,99.90
2018-02-25T16:57:45.065Z,99.90
2018-02-25T17:00:13.657Z,99.90
2018-02-25T17:02:41.949Z,99.90
2018-02-25T17:05:10.214Z,99.90
2018-02-25T17:07:38.503Z,99.90
2018-02-25T17:10:07.544Z,99.90
2018-02-25T17:12:35.812Z,99.90
2018-02-25T17:15:04.950Z,99.90
2018-02-25T17:17:33.222Z,99.90
2018-02-25T17:20:01.492Z,99.90
2018-02-25T17:22:30.525Z,99.90
2018-02-25T17:24:58.797Z,99.90
2018-02-25T17:27:27.066Z,99.90
2018-02-25T17:29:56.103Z,99.90
2018-02-25T17:32:24.391Z,99.90
2018-02-25T17:34:52.679Z,99.90
2018-02-25T17:37:20.950Z,99.90
2018-02-25T17:39:49.980Z,99.90
2018-02-25T17:42:18.257Z,99.90
2018-02-25T17:44:46.525Z,99.90
2018-02-25T17:47:15.548Z,99.90
2018-02-25T17:49:43.825Z,99.90
2018-02-25T17:52:12.865Z,99.90
2018-02-25T17:54:41.149Z,99.90
2018-02-25T17:57:09.442Z,99.90
2018-02-25T17:59:37.742Z,99.90
2018-02-25T18:02:06.014Z,99.90
2018-02-25T18:04:34.290Z,99.90
2018-02-25T18:07:02.562Z,99.90
2018-02-25T18:09:31.605Z,99.90
2018-02-25T18:11:59.869Z,99.90
2018-02-25T18:14:28.148Z,99.90
2018-02-25T18:16:57.198Z,99.90
2018-02-25T18:19:25.461Z,99.90
2018-02-25T18:21:53.728Z,99.90
2018-02-25T18:24:22.773Z,99.90
2018-02-25T18:26:51.050Z,99.90
2018-02-25T18:29:19.324Z,99.90
2018-02-25T18:31:48.530Z,99.90
2018-02-25T18:34:16.803Z,99.90
2018-02-25T18:36:45.827Z,99.90
2018-02-25T18:39:14.104Z,99.90
2018-02-25T18:41:43.138Z,99.90
2018-02-25T18:44:11.405Z,99.90
2018-02-25T18:46:39.668Z,99.90
2018-02-25T18:49:07.945Z,99.90
2018-02-25T18:51:36.212Z,99.90
2018-02-25T18:54:04.493Z,99.90
2018-02-25T18:56:32.780Z,99.90
2018-02-25T18:59:01.048Z,99.90
2018-02-25T19:01:29.330Z,99.90
2018-02-25T19:03:59.289Z,99.90
2018-02-25T19:06:27.553Z,99.90
2018-02-25T19:08:55.844Z,99.90
2018-02-25T19:11:24.103Z,99.90
2018-02-25T19:13:53.145Z,99.90
2018-02-25T19:16:21.395Z,99.90
2018-02-25T19:18:50.500Z,99.90
2018-02-25T19:21:18.721Z,99.90
2018-02-25T19:23:46.992Z,99.90
2018-02-25T19:26:15.258Z,99.90
2018-02-25T19:28:44.291Z,99.90
2018-02-25T19:31:12.565Z,99.90
2018-02-25T19:33:41.606Z,99.90
2018-02-25T19:36:15.316Z,99.90
2018-02-25T19:38:49.079Z,99.90
2018-02-25T19:41:22.847Z,99.90
2018-02-25T19:43:51.126Z,99.90
2018-02-25T19:46:19.442Z,99.90
2018-02-25T19:48:47.735Z,99.90
2018-02-25T19:51:16.006Z,99.90
2018-02-25T19:53:44.302Z,99.90
2018-02-25T19:56:12.563Z,99.90
2018-02-25T19:58:40.831Z,99.90
2018-02-25T20:01:09.886Z,99.90
2018-02-25T20:03:38.149Z,99.90
2018-02-25T20:06:06.452Z,99.90
2018-02-25T20:08:35.617Z,99.90
2018-02-25T20:11:03.906Z,99.90
2018-02-25T20:13:32.163Z,99.90
2018-02-25T20:16:00.439Z,99.90
2018-02-25T20:18:28.709Z,99.90
2018-02-25T20:20:56.976Z,99.90
2018-02-25T20:23:26.017Z,99.90
2018-02-25T20:25:54.290Z,99.90
2018-02-25T20:28:22.552Z,99.90
2018-02-25T20:30:51.593Z,99.90
2018-02-25T20:33:19.861Z,99.90
2018-02-25T20:35:48.128Z,99.90
2018-02-25T20:38:16.417Z,99.90
2018-02-25T20:40:45.452Z,99.90
2018-02-25T20:43:13.720Z,99.90
2018-02-25T20:45:42.764Z,99.90
2018-02-25T20:48:11.029Z,99.90
2018-02-25T20:50:39.296Z,99.90
2018-02-25T20:53:08.340Z,99.90
2018-02-25T20:55:36.613Z,99.90
2018-02-25T20:58:04.881Z,99.90
2018-02-25T21:00:33.921Z,99.90
2018-02-25T21:03:02.961Z,99.90
2018-02-25T21:05:31.244Z,99.90
2018-02-25T21:07:59.505Z,99.90
2018-02-25T21:10:27.781Z,99.90
2018-02-25T21:12:56.053Z,99.90
2018-02-25T21:15:25.088Z,99.90
2018-02-25T21:17:56.497Z,99.90
2018-02-25T21:20:24.773Z,99.90
2018-02-25T21:22:53.042Z,99.90
2018-02-25T21:25:21.312Z,99.90
2018-02-25T21:27:49.582Z,99.90
2018-02-25T21:30:17.860Z,99.90
2018-02-25T21:32:46.940Z,99.90
2018-02-25T21:35:15.168Z,99.90
2018-02-25T21:37:43.432Z,99.90
2018-02-25T21:40:12.800Z,99.90
2018-02-25T21:42:41.056Z,99.90
2018-02-25T21:45:09.338Z,99.90
2018-02-25T21:47:37.600Z,99.90
2018-02-25T21:50:05.864Z,99.90
2018-02-25T21:52:34.120Z,99.90
2018-02-25T21:55:02.433Z,99.90
2018-02-25T21:57:36.218Z,99.90
2018-02-25T22:00:09.919Z,99.90
2018-02-25T22:02:44.431Z,99.90
2018-02-25T22:05:12.736Z,99.90
2018-02-25T22:07:40.973Z,99.90
2018-02-25T22:10:09.251Z,99.90
2018-02-25T22:12:37.522Z,99.90
2018-02-25T22:15:05.789Z,99.90
2018-02-25T22:17:34.062Z,99.90
2018-02-25T22:20:03.201Z,99.90
2018-02-25T22:22:31.485Z,99.90
2018-02-25T22:25:00.525Z,99.90
2018-02-25T22:27:28.793Z,99.90
2018-02-25T22:29:57.070Z,99.90
2018-02-25T22:32:25.345Z,99.90
2018-02-25T22:34:54.400Z,99.90
2018-02-25T22:37:22.796Z,99.90
2018-02-25T22:39:51.056Z,99.90
2018-02-25T22:42:19.336Z,99.90
2018-02-25T22:44:47.600Z,99.90
2018-02-25T22:47:16.646Z,99.90
2018-02-25T22:49:44.917Z,99.90
2018-02-25T22:52:13.180Z,99.90
2018-02-25T22:54:42.217Z,99.90
2018-02-25T22:57:10.490Z,99.90
2018-02-25T22:59:39.516Z,99.90
2018-02-25T23:02:07.788Z,99.90
2018-02-25T23:04:36.827Z,99.90
2018-02-25T23:07:05.104Z,99.90
2018-02-25T23:09:33.370Z,99.90
2018-02-25T23:12:01.649Z,99.90
2018-02-25T23:14:30.675Z,99.90
2018-02-25T23:16:58.978Z,99.90
2018-02-25T23:19:27.257Z,99.90
2018-02-25T23:21:55.532Z,99.90
2018-02-25T23:24:23.801Z,99.90
2018-02-25T23:26:52.862Z,99.90
2018-02-25T23:29:21.122Z,99.90
2018-02-25T23:31:49.414Z,99.90
2018-02-25T23:34:17.682Z,99.90
2018-02-25T23:36:46.724Z,99.90
2018-02-25T23:39:14.992Z,99.90
2018-02-25T23:41:43.286Z,99.90
2018-02-25T23:44:11.547Z,99.90
2018-02-25T23:46:40.612Z,99.90
2018-02-25T23:49:08.894Z,99.90
2018-02-25T23:51:37.170Z,99.90
2018-02-25T23:54:05.449Z,99.90
2018-02-25T23:56:33.721Z,99.90
2018-02-25T23:59:01.983Z,99.90
